Bellingham International Airport
KBLI : now visible

Airfield :











YOU CAN JOIN US ON...

 
LOGIN :

Register | Disclaimer

   EN    FR    IT 

 









Legend :    VFR   Marginal VFR   IFR   Intensive IFR   Very Intensive IFR
Visi :
Ceiling :
>= 8 km
>= 3000ft
5 to 8 km
1000 to 3000 ft
1500m to 5 km
500 to 1000 ft
800 to 1500m
200 to 500 ft
< 800m
< 200 ft
Symbols :   Thunderstorms  Fog  Heavy snow  Heavy precipitations  Wind > 20 kt






- Airport Elevation : 170 ft
- IATA code : BLI


KBLI - Bellingham International

CURRENT METAR :
  • 012153Z 23003KT 10SM CLR 10/05 A3005 RMK AO2 SLP183 T01000050

EXPIRED METARs :
  • 012053Z 16003KT 10SM FEW095 10/06 A3006 RMK AO2 SLP186 T01000061 58004
  • 011953Z 00000KT 10SM SCT100 10/06 A3007 RMK AO2 SLP189 T01000056

TAF KBLI
Valid from the 01 at 18:00 until the 02 at 18:00 UTC


011737Z 0118/0218 16006KT P6SM SCT045 OVC100
FM012000 17010KT P6SM SCT050 BKN120
FM020500 17008KT P6SM VCSH OVC050
FM021100 18004KT P6SM VCSH BKN035 OVC060
KZSE FIR / North America



MET'MAP, your aeronautical weather chart ! - Copyright ORBIFLY December 2007 - Disclaimer

ORBIFLY MET'MAP TEAM :

Programming & Development : Alexandra Zaïnal
Concept & original design : Baudouin d'Aumeries
Assistance for programming : Marc-Olivier Méhu
Technical & hardware support : Manuel Goepfert

Contact : metmap@orbifly.com




SOURCES & CREDITS :

   NOAA       Earth
Advisory